Bowens Corners, New York
Current Conditions -  °F | °C
As of 7:54 PM on Monday 26 Jan 2015 (Local Time) from KFZY Reporting Station
Light Snow Light Snow  
Wind Chill:   Ceiling: 7500
Heat Index: 16°   Visibility: 6mi
Dew Point: 11°   Wind: 7mph
Humidity: 81%   Direction: 10°N
Pressure: 29.98"   Gusts: NA
Location:  43.3608°N, 76.3536°W
Report Text: KFZY 270054Z AUTO 01006KT 6SM -SN OVC075 M09/M12 A2998 RMK AO2 SLP162 P0000 T10891117
Loading
Personal Weather Stations






























Interactive Weather Map New forecast layout! Learn more

10-Day Weather Forecast

Advertisements
Track Severe Weather on mobile